createdAt,value
2019-04-21T00:00:58.630Z,1019.58
2019-04-21T00:01:56.390Z,1019.58
2019-04-21T00:02:55.384Z,1019.54
2019-04-21T00:04:02.489Z,1019.55
2019-04-21T00:05:16.458Z,1019.60
2019-04-21T00:07:16.010Z,1019.54
2019-04-21T00:08:27.830Z,1019.65
2019-04-21T00:09:18.187Z,1019.52
2019-04-21T00:10:13.566Z,1019.55
2019-04-21T00:11:18.513Z,1019.55
2019-04-21T00:12:13.996Z,1019.53
2019-04-21T00:13:12.411Z,1019.58
2019-04-21T00:14:05.724Z,1019.53
2019-04-21T00:15:06.360Z,1019.56
2019-04-21T00:16:00.267Z,1019.56
2019-04-21T00:17:02.803Z,1019.46
2019-04-21T00:18:00.331Z,1019.53
2019-04-21T00:19:01.163Z,1019.49
2019-04-21T00:20:05.507Z,1019.48
2019-04-21T00:21:08.244Z,1019.56
2019-04-21T00:22:07.704Z,1019.48
2019-04-21T00:23:13.051Z,1019.57
2019-04-21T00:24:05.921Z,1019.48
2019-04-21T00:25:11.817Z,1019.51
2019-04-21T00:26:04.028Z,1019.43
2019-04-21T00:27:14.192Z,1019.49
2019-04-21T00:28:17.029Z,1019.44
2019-04-21T00:29:16.444Z,1019.39
2019-04-21T00:30:17.870Z,1019.41
2019-04-21T00:31:12.659Z,1019.47
2019-04-21T00:32:11.473Z,1019.41
2019-04-21T00:33:04.597Z,1019.38
2019-04-21T00:33:55.075Z,1019.40
2019-04-21T00:35:02.518Z,1019.30
2019-04-21T00:36:00.760Z,1019.36
2019-04-21T00:37:07.042Z,1019.29
2019-04-21T00:39:15.759Z,1019.26
2019-04-21T00:40:17.952Z,1019.22
2019-04-21T00:42:16.847Z,1019.24
2019-04-21T00:43:08.962Z,1019.21
2019-04-21T00:44:10.968Z,1019.23
2019-04-21T00:45:07.917Z,1019.23
2019-04-21T00:46:04.844Z,1019.21
2019-04-21T00:47:08.514Z,1019.23
2019-04-21T00:48:20.634Z,1019.17
2019-04-21T00:49:10.893Z,1019.17
2019-04-21T00:50:19.051Z,1019.19
2019-04-21T00:51:16.873Z,1019.15
2019-04-21T00:52:28.870Z,1019.10
2019-04-21T00:53:05.541Z,1019.15
2019-04-21T00:54:13.321Z,1019.14
2019-04-21T00:55:30.919Z,1019.13
2019-04-21T00:56:09.002Z,1019.14
2019-04-21T00:57:17.984Z,1019.07
2019-04-21T00:58:13.097Z,1019.11
2019-04-21T00:59:20.033Z,1018.99
2019-04-21T01:00:18.793Z,1019.07
2019-04-21T01:01:16.158Z,1018.99
2019-04-21T01:02:09.127Z,1019.00
2019-04-21T01:03:20.633Z,1019.08
2019-04-21T01:04:09.713Z,1018.93
2019-04-21T01:05:11.249Z,1019.03
2019-04-21T01:06:21.247Z,1019.03
2019-04-21T01:07:12.433Z,1019.03
2019-04-21T01:08:09.965Z,1019.02
2019-04-21T01:09:16.510Z,1019.00
2019-04-21T01:10:05.218Z,1018.95
2019-04-21T01:11:18.883Z,1018.91
2019-04-21T01:12:12.618Z,1018.97
2019-04-21T01:13:23.126Z,1018.92
2019-04-21T01:14:27.917Z,1018.89
2019-04-21T01:15:16.402Z,1018.86
2019-04-21T01:16:13.812Z,1019.01
2019-04-21T01:17:18.678Z,1018.89
2019-04-21T01:18:16.899Z,1018.95
2019-04-21T01:19:17.358Z,1018.92
2019-04-21T01:20:08.184Z,1018.92
2019-04-21T01:20:55.203Z,1018.86
2019-04-21T01:21:55.203Z,1018.85
2019-04-21T01:22:55.864Z,1018.90
2019-04-21T01:24:04.864Z,1018.89
2019-04-21T01:25:05.622Z,1018.85
2019-04-21T01:26:06.586Z,1018.84
2019-04-21T01:27:04.750Z,1018.86
2019-04-21T01:28:15.095Z,1018.81
2019-04-21T01:29:06.672Z,1018.81
2019-04-21T01:30:16.494Z,1018.80
2019-04-21T01:31:13.685Z,1018.83
2019-04-21T01:32:16.069Z,1018.82
2019-04-21T01:33:12.431Z,1018.81
2019-04-21T01:34:15.098Z,1018.80
2019-04-21T01:35:15.064Z,1018.79
2019-04-21T01:36:14.253Z,1018.84
2019-04-21T01:37:12.783Z,1018.82
2019-04-21T01:39:19.721Z,1018.79
2019-04-21T01:40:26.839Z,1018.81
2019-04-21T01:41:21.005Z,1018.81
2019-04-21T01:42:19.083Z,1018.75
2019-04-21T01:43:15.128Z,1018.79
2019-04-21T01:45:11.393Z,1018.71
2019-04-21T01:46:10.624Z,1018.69
2019-04-21T01:47:11.728Z,1018.69
2019-04-21T01:48:13.689Z,1018.77
2019-04-21T01:49:10.484Z,1018.76
2019-04-21T01:50:04.337Z,1018.66
2019-04-21T01:51:11.530Z,1018.62
2019-04-21T01:52:17.848Z,1018.67
2019-04-21T01:53:22.445Z,1018.66
2019-04-21T01:54:14.650Z,1018.64
2019-04-21T01:55:12.319Z,1018.64
2019-04-21T01:56:18.425Z,1018.66
2019-04-21T01:57:12.983Z,1018.70
2019-04-21T01:58:05.977Z,1018.67
2019-04-21T01:59:03.490Z,1018.64
2019-04-21T02:00:04.927Z,1018.63
2019-04-21T02:01:08.670Z,1018.58
2019-04-21T02:02:17.192Z,1018.56
2019-04-21T02:03:37.481Z,1018.60
2019-04-21T02:04:14.106Z,1018.55
2019-04-21T02:05:17.517Z,1018.57
2019-04-21T02:06:11.107Z,1018.53
2019-04-21T02:07:15.051Z,1018.54
2019-04-21T02:09:10.067Z,1018.58
2019-04-21T02:10:11.197Z,1018.50
2019-04-21T02:11:17.536Z,1018.58
2019-04-21T02:12:13.444Z,1018.55
2019-04-21T02:13:15.379Z,1018.60
2019-04-21T02:14:17.506Z,1018.49
2019-04-21T02:15:14.303Z,1018.48
2019-04-21T02:17:20.360Z,1018.56
2019-04-21T02:18:16.990Z,1018.59
2019-04-21T02:19:12.542Z,1018.52
2019-04-21T02:20:09.396Z,1018.48
2019-04-21T02:21:04.401Z,1018.51
2019-04-21T02:22:10.735Z,1018.47
2019-04-21T02:23:26.405Z,1018.54
2019-04-21T02:24:27.337Z,1018.54
2019-04-21T02:25:08.319Z,1018.65
2019-04-21T02:26:21.277Z,1018.51
2019-04-21T02:27:19.095Z,1018.60
2019-04-21T02:28:22.449Z,1018.58
2019-04-21T02:29:18.875Z,1018.47
2019-04-21T02:30:32.959Z,1018.50
2019-04-21T02:31:29.043Z,1018.48
2019-04-21T02:32:33.445Z,1018.52
2019-04-21T02:33:27.869Z,1018.50
2019-04-21T02:34:27.430Z,1018.57
2019-04-21T02:35:33.417Z,1018.55
2019-04-21T02:36:27.480Z,1018.53
2019-04-21T02:37:36.713Z,1018.51
2019-04-21T02:38:33.208Z,1018.52
2019-04-21T02:39:35.524Z,1018.46
2019-04-21T02:41:18.742Z,1018.42
2019-04-21T02:43:22.906Z,1018.48
2019-04-21T02:44:30.205Z,1018.42
2019-04-21T02:45:20.848Z,1018.49
2019-04-21T02:47:36.978Z,1018.42
2019-04-21T02:48:28.592Z,1018.38
2019-04-21T02:49:35.005Z,1018.45
2019-04-21T02:50:22.420Z,1018.36
2019-04-21T02:51:28.003Z,1018.37
2019-04-21T02:52:31.010Z,1018.36
2019-04-21T02:53:31.792Z,1018.37
2019-04-21T02:55:22.203Z,1018.24
2019-04-21T02:57:23.070Z,1018.28
2019-04-21T02:58:34.644Z,1018.32
2019-04-21T02:59:23.651Z,1018.29
2019-04-21T03:00:19.147Z,1018.28
2019-04-21T03:01:32.098Z,1018.20
2019-04-21T03:02:16.402Z,1018.27
2019-04-21T03:03:29.596Z,1018.29
2019-04-21T03:04:30.202Z,1018.27
2019-04-21T03:05:29.267Z,1018.24
2019-04-21T03:06:16.801Z,1018.24
2019-04-21T03:07:19.180Z,1018.25
2019-04-21T03:09:19.679Z,1018.20
2019-04-21T03:12:22.172Z,1018.22
2019-04-21T03:13:29.728Z,1018.21
2019-04-21T03:17:29.584Z,1018.22
2019-04-21T03:20:25.687Z,1018.17
2019-04-21T03:21:22.127Z,1018.23
2019-04-21T03:23:31.856Z,1018.23
2019-04-21T03:24:29.666Z,1018.24
2019-04-21T03:25:37.168Z,1018.31
2019-04-21T03:26:20.231Z,1018.20
2019-04-21T03:27:17.283Z,1018.20
2019-04-21T03:29:28.171Z,1018.24
2019-04-21T03:30:45.167Z,1018.17
2019-04-21T03:32:28.437Z,1018.19
2019-04-21T03:34:12.215Z,1018.22
2019-04-21T03:36:02.190Z,1018.23
2019-04-21T03:36:47.789Z,1018.25
2019-04-21T03:37:30.842Z,1018.22
2019-04-21T03:38:29.290Z,1018.17
2019-04-21T03:39:18.368Z,1018.17
2019-04-21T03:40:22.185Z,1018.18
2019-04-21T03:44:26.736Z,1018.11
2019-04-21T03:45:33.043Z,1018.12
2019-04-21T03:46:15.859Z,1018.13
2019-04-21T03:47:32.407Z,1018.18
2019-04-21T03:48:27.171Z,1018.15
2019-04-21T03:49:28.875Z,1018.12
2019-04-21T03:51:20.988Z,1018.14
2019-04-21T03:52:37.034Z,1018.13
2019-04-21T03:53:28.298Z,1018.15
2019-04-21T03:54:20.236Z,1018.13
2019-04-21T03:55:51.456Z,1018.15
2019-04-21T03:56:44.419Z,1018.13
2019-04-21T03:57:38.791Z,1018.21
2019-04-21T03:59:12.272Z,1018.20
2019-04-21T04:01:19.765Z,1018.17
2019-04-21T04:03:49.225Z,1018.20
2019-04-21T04:05:36.287Z,1018.12
2019-04-21T04:06:25.753Z,1018.08
2019-04-21T04:08:23.062Z,1018.12
2019-04-21T04:10:14.002Z,1018.07
2019-04-21T04:11:24.828Z,1018.01
2019-04-21T04:13:15.692Z,1018.09
2019-04-21T04:14:31.029Z,1017.95
2019-04-21T04:15:31.153Z,1018.09
2019-04-21T04:18:42.761Z,1018.02
2019-04-21T04:20:28.311Z,1018.06
2019-04-21T04:22:31.452Z,1018.09
2019-04-21T04:24:30.201Z,1018.08
2019-04-21T04:26:13.075Z,1018.05
2019-04-21T04:27:49.212Z,1018.09
2019-04-21T04:28:28.150Z,1018.02
2019-04-21T04:31:33.418Z,1018.01
2019-04-21T04:36:33.931Z,1018.00
2019-04-21T04:39:43.033Z,1018.08
2019-04-21T04:41:34.985Z,1018.04
2019-04-21T04:42:35.047Z,1018.05
2019-04-21T04:43:25.057Z,1018.03
2019-04-21T04:44:42.286Z,1018.01
2019-04-21T04:45:30.717Z,1017.94
2019-04-21T04:46:28.562Z,1018.04
2019-04-21T04:47:20.478Z,1018.05
2019-04-21T04:48:11.471Z,1018.02
2019-04-21T04:49:40.111Z,1018.03
2019-04-21T04:50:35.922Z,1018.08
2019-04-21T04:51:36.491Z,1018.08
2019-04-21T04:53:32.827Z,1017.99
2019-04-21T04:55:26.313Z,1018.09
2019-04-21T04:56:31.113Z,1018.02
2019-04-21T04:57:34.255Z,1018.00
2019-04-21T04:58:29.600Z,1018.03
2019-04-21T04:59:33.696Z,1018.01
2019-04-21T05:00:18.129Z,1017.97
2019-04-21T05:01:32.710Z,1017.93
2019-04-21T05:02:20.358Z,1017.90
2019-04-21T05:03:15.592Z,1017.92
2019-04-21T05:04:16.341Z,1017.88
2019-04-21T05:07:33.727Z,1017.87
2019-04-21T05:08:36.449Z,1017.89
2019-04-21T05:09:21.620Z,1017.87
2019-04-21T05:10:22.323Z,1017.90
2019-04-21T05:12:16.329Z,1017.83
2019-04-21T05:13:29.263Z,1017.80
2019-04-21T05:14:25.153Z,1017.80
2019-04-21T05:15:19.305Z,1017.79
2019-04-21T05:16:36.375Z,1017.77
2019-04-21T05:17:31.153Z,1017.77
2019-04-21T05:18:24.420Z,1017.80
2019-04-21T05:19:20.916Z,1017.79
2019-04-21T05:20:23.764Z,1017.77
2019-04-21T05:21:30.203Z,1017.82
2019-04-21T05:22:21.920Z,1017.68
2019-04-21T05:23:15.222Z,1017.79
2019-04-21T05:24:13.664Z,1017.79
2019-04-21T05:25:11.005Z,1017.80
2019-04-21T05:26:09.871Z,1017.73
2019-04-21T05:27:12.645Z,1017.75
2019-04-21T05:28:08.944Z,1017.75
2019-04-21T05:29:05.274Z,1017.70
2019-04-21T05:30:17.812Z,1017.65
2019-04-21T05:32:14.077Z,1017.70
2019-04-21T05:33:20.497Z,1017.69
2019-04-21T05:34:18.987Z,1017.69
2019-04-21T05:35:08.218Z,1017.64
2019-04-21T05:36:16.873Z,1017.70
2019-04-21T05:37:14.265Z,1017.70
2019-04-21T05:38:12.803Z,1017.69
2019-04-21T05:39:10.773Z,1017.71
2019-04-21T05:40:10.600Z,1017.64
2019-04-21T05:41:06.573Z,1017.66
2019-04-21T05:42:07.828Z,1017.76
2019-04-21T05:44:19.355Z,1017.63
2019-04-21T05:45:21.102Z,1017.63
2019-04-21T05:46:21.353Z,1017.60
2019-04-21T05:49:09.369Z,1017.65
2019-04-21T05:50:11.612Z,1017.64
2019-04-21T05:51:10.639Z,1017.63
2019-04-21T05:52:03.793Z,1017.58
2019-04-21T05:53:24.293Z,1017.63
2019-04-21T05:54:22.915Z,1017.62
2019-04-21T05:55:18.074Z,1017.65
2019-04-21T05:56:16.236Z,1017.62
2019-04-21T05:57:10.234Z,1017.67
2019-04-21T05:58:11.603Z,1017.64
2019-04-21T05:59:12.082Z,1017.67
2019-04-21T06:00:20.057Z,1017.67
2019-04-21T06:01:27.580Z,1017.65
2019-04-21T06:02:23.948Z,1017.65
2019-04-21T06:03:19.736Z,1017.58
2019-04-21T06:04:26.225Z,1017.67
2019-04-21T06:05:28.583Z,1017.59
2019-04-21T06:06:22.008Z,1017.54
2019-04-21T06:07:21.625Z,1017.50
2019-04-21T06:08:19.364Z,1017.51
2019-04-21T06:09:14.609Z,1017.59
2019-04-21T06:10:14.853Z,1017.54
2019-04-21T06:11:20.978Z,1017.52
2019-04-21T06:12:18.289Z,1017.52
2019-04-21T06:13:13.448Z,1017.49
2019-04-21T06:16:13.876Z,1017.52
2019-04-21T06:17:25.334Z,1017.55
2019-04-21T06:18:13.015Z,1017.50
2019-04-21T06:19:29.390Z,1017.51
2019-04-21T06:20:17.149Z,1017.49
2019-04-21T06:21:16.403Z,1017.49
2019-04-21T06:22:16.617Z,1017.51
2019-04-21T06:23:12.071Z,1017.50
2019-04-21T06:24:18.837Z,1017.50
2019-04-21T06:25:40.986Z,1017.45
2019-04-21T06:26:44.822Z,1017.42
2019-04-21T06:27:24.777Z,1017.51
2019-04-21T06:28:26.003Z,1017.50
2019-04-21T06:29:18.459Z,1017.48
2019-04-21T06:30:10.384Z,1017.45
2019-04-21T06:31:21.602Z,1017.50
2019-04-21T06:32:30.457Z,1017.44
2019-04-21T06:33:15.404Z,1017.45
2019-04-21T06:34:17.266Z,1017.49
2019-04-21T06:36:24.159Z,1017.37
2019-04-21T06:38:13.138Z,1017.35
2019-04-21T06:39:17.819Z,1017.39
2019-04-21T06:40:23.037Z,1017.35
2019-04-21T06:41:21.354Z,1017.44
2019-04-21T06:42:16.729Z,1017.41
2019-04-21T06:43:25.940Z,1017.40
2019-04-21T06:44:13.804Z,1017.32
2019-04-21T06:45:20.440Z,1017.39
2019-04-21T06:46:25.610Z,1017.38
2019-04-21T06:47:23.084Z,1017.34
2019-04-21T06:48:18.461Z,1017.39
2019-04-21T06:49:13.349Z,1017.33
2019-04-21T06:51:23.693Z,1017.37
2019-04-21T06:52:41.890Z,1017.29
2019-04-21T06:54:14.531Z,1017.32
2019-04-21T06:56:25.463Z,1017.39
2019-04-21T06:57:18.696Z,1017.20
2019-04-21T06:58:18.342Z,1017.35
2019-04-21T07:00:15.026Z,1017.22
2019-04-21T07:01:18.918Z,1017.31
2019-04-21T07:03:20.610Z,1017.28
2019-04-21T07:04:25.194Z,1017.26
2019-04-21T07:07:14.138Z,1017.20
2019-04-21T07:08:29.383Z,1017.17
2019-04-21T07:09:22.326Z,1017.23
2019-04-21T07:11:15.054Z,1017.21
2019-04-21T07:12:13.894Z,1017.16
2019-04-21T07:13:08.263Z,1017.22
2019-04-21T07:14:30.087Z,1017.17
2019-04-21T07:15:19.188Z,1017.14
2019-04-21T07:16:13.829Z,1017.18
2019-04-21T07:17:20.303Z,1017.25
2019-04-21T07:18:19.459Z,1017.19
2019-04-21T07:19:22.113Z,1017.19
2019-04-21T07:20:18.796Z,1017.24
2019-04-21T07:21:14.327Z,1017.19
2019-04-21T07:22:15.813Z,1017.23
2019-04-21T07:24:22.637Z,1017.13
2019-04-21T07:25:13.710Z,1017.13
2019-04-21T07:26:22.239Z,1017.12
2019-04-21T07:28:19.037Z,1017.15
2019-04-21T07:30:13.143Z,1017.19
2019-04-21T07:31:22.802Z,1017.21
2019-04-21T07:32:19.134Z,1017.21
2019-04-21T07:33:46.229Z,1017.21
2019-04-21T07:34:25.133Z,1017.23
2019-04-21T07:36:11.699Z,1017.21
2019-04-21T07:37:13.906Z,1017.24
2019-04-21T07:38:17.997Z,1017.19
2019-04-21T07:39:15.284Z,1017.25
2019-04-21T07:40:09.438Z,1017.20
2019-04-21T07:41:09.199Z,1017.17
2019-04-21T07:42:13.340Z,1017.22
2019-04-21T07:43:10.765Z,1017.22
2019-04-21T07:44:08.733Z,1017.21
2019-04-21T07:45:13.028Z,1017.19
2019-04-21T07:46:10.159Z,1017.15
2019-04-21T07:47:15.773Z,1017.18
2019-04-21T07:49:12.768Z,1017.11
2019-04-21T07:50:08.756Z,1017.13
2019-04-21T07:51:20.697Z,1017.11
2019-04-21T07:52:18.729Z,1017.06
2019-04-21T07:53:23.918Z,1017.10
2019-04-21T07:54:13.836Z,1017.08
2019-04-21T07:56:06.277Z,1017.11
2019-04-21T07:57:06.688Z,1017.07
2019-04-21T07:58:14.592Z,1017.15
2019-04-21T07:59:12.734Z,1017.07
2019-04-21T08:00:20.607Z,1017.12
2019-04-21T08:01:18.252Z,1016.99
2019-04-21T08:02:16.982Z,1017.03
2019-04-21T08:03:13.842Z,1017.06
2019-04-21T08:04:24.283Z,1017.04
2019-04-21T08:05:17.313Z,1016.97
2019-04-21T08:06:22.348Z,1016.97
2019-04-21T08:08:11.379Z,1017.03
2019-04-21T08:09:12.577Z,1017.02
2019-04-21T08:10:16.031Z,1016.98
2019-04-21T08:11:12.229Z,1017.02
2019-04-21T08:12:09.539Z,1017.04
2019-04-21T08:13:22.041Z,1017.01
2019-04-21T08:14:17.000Z,1016.98
2019-04-21T08:15:15.671Z,1017.03
2019-04-21T08:16:25.665Z,1017.05
2019-04-21T08:17:10.997Z,1017.05
2019-04-21T08:18:11.771Z,1017.00
2019-04-21T08:19:15.654Z,1017.04
2019-04-21T08:20:13.951Z,1016.94
2019-04-21T08:21:19.531Z,1017.00
2019-04-21T08:22:15.703Z,1017.02
2019-04-21T08:24:14.488Z,1016.98
2019-04-21T08:25:14.899Z,1016.97
2019-04-21T08:26:16.611Z,1017.02
2019-04-21T08:27:18.872Z,1016.94
2019-04-21T08:28:08.948Z,1016.99
2019-04-21T08:29:21.204Z,1016.97
2019-04-21T08:30:21.517Z,1016.92
2019-04-21T08:31:23.633Z,1016.89
2019-04-21T08:32:14.496Z,1016.85
2019-04-21T08:33:26.262Z,1016.79
2019-04-21T08:34:17.829Z,1016.85
2019-04-21T08:36:28.183Z,1016.86
2019-04-21T08:37:18.235Z,1016.86
2019-04-21T08:39:13.399Z,1016.77
2019-04-21T08:40:21.363Z,1016.77
2019-04-21T08:41:13.674Z,1016.73
2019-04-21T08:42:19.816Z,1016.76
2019-04-21T08:43:21.148Z,1016.82
2019-04-21T08:44:20.566Z,1016.80
2019-04-21T08:46:15.223Z,1016.79
2019-04-21T08:47:20.318Z,1016.78
2019-04-21T08:48:12.428Z,1016.73
2019-04-21T08:49:15.810Z,1016.80
2019-04-21T08:51:27.590Z,1016.72
2019-04-21T08:52:21.260Z,1016.68
2019-04-21T08:53:13.937Z,1016.77
2019-04-21T08:54:18.378Z,1016.64
2019-04-21T08:55:20.298Z,1016.74
2019-04-21T08:56:16.425Z,1016.64
2019-04-21T08:57:20.105Z,1016.66
2019-04-21T08:58:15.445Z,1016.62
2019-04-21T08:59:19.229Z,1016.65
2019-04-21T09:00:19.797Z,1016.61
2019-04-21T09:01:17.583Z,1016.66
2019-04-21T09:03:17.761Z,1016.57
2019-04-21T09:04:13.298Z,1016.57
2019-04-21T09:05:15.844Z,1016.62
2019-04-21T09:06:13.839Z,1016.53
2019-04-21T09:07:16.209Z,1016.56
2019-04-21T09:08:13.775Z,1016.47
2019-04-21T09:09:20.024Z,1016.52
2019-04-21T09:10:09.471Z,1016.54
2019-04-21T09:11:12.831Z,1016.50
2019-04-21T09:12:17.610Z,1016.52
2019-04-21T09:13:15.275Z,1016.56
2019-04-21T09:14:13.724Z,1016.51
2019-04-21T09:15:13.979Z,1016.55
2019-04-21T09:16:09.723Z,1016.52
2019-04-21T09:17:12.102Z,1016.45
2019-04-21T09:18:11.473Z,1016.45
2019-04-21T09:19:20.167Z,1016.47
2019-04-21T09:20:16.970Z,1016.39
2019-04-21T09:21:13.558Z,1016.46
2019-04-21T09:22:12.835Z,1016.50
2019-04-21T09:23:15.432Z,1016.40
2019-04-21T09:24:16.708Z,1016.50
2019-04-21T09:25:21.164Z,1016.41
2019-04-21T09:26:13.846Z,1016.41
2019-04-21T09:27:10.179Z,1016.36
2019-04-21T09:28:12.618Z,1016.42
2019-04-21T09:29:05.661Z,1016.45
2019-04-21T09:30:00.309Z,1016.34
2019-04-21T09:30:58.477Z,1016.34
2019-04-21T09:31:59.141Z,1016.36
2019-04-21T09:32:56.860Z,1016.31
2019-04-21T09:34:00.306Z,1016.39
2019-04-21T09:34:55.800Z,1016.31
2019-04-21T09:35:59.662Z,1016.24
2019-04-21T09:37:12.744Z,1016.22
2019-04-21T09:38:02.181Z,1016.11
2019-04-21T09:39:00.081Z,1016.24
2019-04-21T09:39:57.407Z,1016.20
2019-04-21T09:40:56.207Z,1016.21
2019-04-21T09:41:57.691Z,1016.04
2019-04-21T09:42:59.282Z,1016.08
2019-04-21T09:43:57.225Z,1016.14
2019-04-21T09:45:00.878Z,1016.18
2019-04-21T09:45:56.679Z,1016.01
2019-04-21T09:46:58.532Z,1016.06
2019-04-21T09:48:02.657Z,1016.11
2019-04-21T09:48:59.261Z,1016.09
2019-04-21T09:49:56.298Z,1016.09
2019-04-21T09:50:55.285Z,1016.03
2019-04-21T09:51:55.671Z,1016.00
2019-04-21T09:52:59.761Z,1015.89
2019-04-21T09:54:00.933Z,1016.00
2019-04-21T09:55:04.178Z,1015.97
2019-04-21T09:56:01.060Z,1016.03
2019-04-21T09:57:00.275Z,1015.92
2019-04-21T09:57:57.586Z,1016.01
2019-04-21T09:59:07.253Z,1015.99
2019-04-21T10:00:04.120Z,1015.95
2019-04-21T10:01:06.241Z,1015.92
2019-04-21T10:02:06.480Z,1015.93
2019-04-21T10:03:02.919Z,1015.95
2019-04-21T10:03:59.777Z,1015.96
2019-04-21T10:04:57.289Z,1015.93
2019-04-21T10:05:56.278Z,1015.90
2019-04-21T10:06:56.266Z,1015.93
2019-04-21T10:07:55.817Z,1015.93
2019-04-21T10:08:58.331Z,1015.87
2019-04-21T10:09:55.719Z,1015.81
2019-04-21T10:10:56.903Z,1015.82
2019-04-21T10:11:57.029Z,1015.87
2019-04-21T10:12:56.287Z,1015.80
2019-04-21T10:13:55.757Z,1015.81
2019-04-21T10:14:55.298Z,1015.79
2019-04-21T10:15:56.341Z,1015.86
2019-04-21T10:16:58.098Z,1015.84
2019-04-21T10:17:56.196Z,1015.78
2019-04-21T10:18:56.731Z,1015.73
2019-04-21T10:19:55.189Z,1015.73
2019-04-21T10:20:56.951Z,1015.72
2019-04-21T10:21:56.555Z,1015.66
2019-04-21T10:22:55.620Z,1015.67
2019-04-21T10:23:55.731Z,1015.70
2019-04-21T10:24:56.394Z,1015.59
2019-04-21T10:25:56.715Z,1015.53
2019-04-21T10:26:55.657Z,1015.66
2019-04-21T10:27:56.971Z,1015.62
2019-04-21T10:28:58.693Z,1015.61
2019-04-21T10:29:59.047Z,1015.53
2019-04-21T10:30:56.490Z,1015.54
2019-04-21T10:31:55.680Z,1015.54
2019-04-21T10:32:56.523Z,1015.50
2019-04-21T10:33:55.821Z,1015.57
2019-04-21T10:34:55.503Z,1015.56
2019-04-21T10:35:56.841Z,1015.49
2019-04-21T10:36:55.722Z,1015.47
2019-04-21T10:38:06.783Z,1015.54
2019-04-21T10:38:57.110Z,1015.44
2019-04-21T10:39:55.842Z,1015.43
2019-04-21T10:40:57.030Z,1015.40
2019-04-21T10:41:55.749Z,1015.36
2019-04-21T10:42:58.324Z,1015.38
2019-04-21T10:43:55.676Z,1015.35
2019-04-21T10:44:56.877Z,1015.33
2019-04-21T10:45:56.977Z,1015.38
2019-04-21T10:46:56.029Z,1015.29
2019-04-21T10:47:56.830Z,1015.23
2019-04-21T10:48:56.798Z,1015.23
2019-04-21T10:49:55.808Z,1015.21
2019-04-21T10:50:55.417Z,1015.18
2019-04-21T10:51:55.618Z,1015.19
2019-04-21T10:52:55.519Z,1015.19
2019-04-21T10:53:56.055Z,1015.17
2019-04-21T10:55:15.620Z,1015.18
2019-04-21T10:56:06.123Z,1015.16
2019-04-21T10:56:56.571Z,1015.14
2019-04-21T10:57:55.956Z,1015.02
2019-04-21T10:58:56.210Z,1015.12
2019-04-21T10:59:57.630Z,1015.06
2019-04-21T11:00:55.807Z,1015.07
2019-04-21T11:01:56.811Z,1015.03
2019-04-21T11:02:56.868Z,1015.06
2019-04-21T11:03:55.812Z,1015.03
2019-04-21T11:04:56.702Z,1015.02
2019-04-21T11:05:56.707Z,1015.01
2019-04-21T11:06:59.441Z,1014.99
2019-04-21T11:08:56.104Z,1014.92
2019-04-21T11:09:56.099Z,1014.97
2019-04-21T11:10:56.033Z,1014.94
2019-04-21T11:11:55.868Z,1014.97
2019-04-21T11:12:56.828Z,1014.94
2019-04-21T11:13:56.663Z,1014.89
2019-04-21T11:14:56.813Z,1014.88
2019-04-21T11:15:55.390Z,1014.84
2019-04-21T11:16:56.521Z,1014.88
2019-04-21T11:17:56.005Z,1014.91
2019-04-21T11:18:56.019Z,1014.89
2019-04-21T11:19:57.031Z,1014.94
2019-04-21T11:20:55.835Z,1014.86
2019-04-21T11:21:56.849Z,1014.91
2019-04-21T11:22:57.445Z,1014.85
2019-04-21T11:23:56.540Z,1014.84
2019-04-21T11:24:56.686Z,1014.79
2019-04-21T11:25:55.790Z,1014.74
2019-04-21T11:26:55.936Z,1014.77
2019-04-21T11:27:56.012Z,1014.72
2019-04-21T11:28:56.730Z,1014.79
2019-04-21T11:29:55.778Z,1014.80
2019-04-21T11:30:54.880Z,1014.78
2019-04-21T11:31:56.903Z,1014.88
2019-04-21T11:32:57.116Z,1014.83
2019-04-21T11:33:57.452Z,1014.81
2019-04-21T11:34:56.949Z,1014.75
2019-04-21T11:35:57.306Z,1014.88
2019-04-21T11:36:56.333Z,1014.72
2019-04-21T11:38:04.630Z,1014.69
2019-04-21T11:39:09.457Z,1014.70
2019-04-21T11:40:00.160Z,1014.68
2019-04-21T11:40:56.004Z,1014.68
2019-04-21T11:41:57.448Z,1014.64
2019-04-21T11:42:55.935Z,1014.69
2019-04-21T11:43:57.104Z,1014.70
2019-04-21T11:44:55.908Z,1014.63
2019-04-21T11:45:55.823Z,1014.65
2019-04-21T11:46:56.398Z,1014.68
2019-04-21T11:47:56.438Z,1014.61
2019-04-21T11:48:55.444Z,1014.65
2019-04-21T11:49:56.997Z,1014.61
2019-04-21T11:50:57.133Z,1014.48
2019-04-21T11:51:56.549Z,1014.51
2019-04-21T11:52:56.877Z,1014.52
2019-04-21T11:53:56.930Z,1014.41
2019-04-21T11:54:56.095Z,1014.45
2019-04-21T11:55:57.006Z,1014.45
2019-04-21T11:56:56.947Z,1014.39
2019-04-21T11:57:56.454Z,1014.40
2019-04-21T11:58:55.798Z,1014.45
2019-04-21T11:59:55.642Z,1014.43
2019-04-21T12:00:55.930Z,1014.35
2019-04-21T12:01:57.258Z,1014.40
2019-04-21T12:02:55.621Z,1014.35
2019-04-21T12:03:55.734Z,1014.37
2019-04-21T12:04:55.331Z,1014.34
2019-04-21T12:05:55.747Z,1014.39
2019-04-21T12:06:56.005Z,1014.46
2019-04-21T12:07:58.388Z,1014.35
2019-04-21T12:08:59.344Z,1014.37
2019-04-21T12:09:55.579Z,1014.45
2019-04-21T12:10:55.782Z,1014.45
2019-04-21T12:11:57.025Z,1014.37
2019-04-21T12:12:55.690Z,1014.40
2019-04-21T12:13:56.246Z,1014.29
2019-04-21T12:14:59.826Z,1014.28
2019-04-21T12:15:57.125Z,1014.32
2019-04-21T12:16:57.092Z,1014.24
2019-04-21T12:17:56.451Z,1014.24
2019-04-21T12:18:56.786Z,1014.19
2019-04-21T12:19:56.937Z,1014.23
2019-04-21T12:20:55.860Z,1014.13
2019-04-21T12:22:05.361Z,1014.08
2019-04-21T12:22:56.994Z,1014.14
2019-04-21T12:23:56.521Z,1014.12
2019-04-21T12:24:57.420Z,1014.13
2019-04-21T12:25:56.952Z,1014.12
2019-04-21T12:26:56.130Z,1014.16
2019-04-21T12:27:56.174Z,1014.13
2019-04-21T12:28:56.129Z,1014.13
2019-04-21T12:29:55.946Z,1014.15
2019-04-21T12:30:56.065Z,1014.01
2019-04-21T12:31:57.239Z,1014.06
2019-04-21T12:32:56.193Z,1014.14
2019-04-21T12:33:56.174Z,1014.08
2019-04-21T12:34:57.708Z,1014.02
2019-04-21T12:35:56.107Z,1014.08
2019-04-21T12:36:56.947Z,1014.03
2019-04-21T12:37:56.413Z,1014.07
2019-04-21T12:38:59.725Z,1013.96
2019-04-21T12:39:56.857Z,1013.97
2019-04-21T12:40:56.925Z,1013.92
2019-04-21T12:41:56.420Z,1013.89
2019-04-21T12:42:56.811Z,1013.86
2019-04-21T12:43:56.960Z,1013.89
2019-04-21T12:44:57.133Z,1013.85
2019-04-21T12:45:55.951Z,1013.77
2019-04-21T12:46:56.129Z,1013.82
2019-04-21T12:47:55.969Z,1013.76
2019-04-21T12:48:55.966Z,1013.79
2019-04-21T12:49:56.994Z,1013.82
2019-04-21T12:50:57.464Z,1013.70
2019-04-21T12:51:55.989Z,1013.74
2019-04-21T12:52:56.161Z,1013.72
2019-04-21T12:53:57.467Z,1013.76
2019-04-21T12:54:56.068Z,1013.76
2019-04-21T12:55:57.878Z,1013.70
2019-04-21T12:56:56.123Z,1013.73
2019-04-21T12:57:57.231Z,1013.62
2019-04-21T12:58:57.539Z,1013.68
2019-04-21T12:59:57.048Z,1013.63
2019-04-21T13:00:56.726Z,1013.65
2019-04-21T13:01:56.884Z,1013.60
2019-04-21T13:02:56.159Z,1013.57
2019-04-21T13:03:55.872Z,1013.51
2019-04-21T13:04:55.979Z,1013.54
2019-04-21T13:05:56.083Z,1013.49
2019-04-21T13:06:55.793Z,1013.52
2019-04-21T13:07:55.587Z,1013.57
2019-04-21T13:09:02.994Z,1013.47
2019-04-21T13:09:58.370Z,1013.41
2019-04-21T13:10:56.256Z,1013.42
2019-04-21T13:11:56.972Z,1013.37
2019-04-21T13:12:56.433Z,1013.32
2019-04-21T13:13:56.238Z,1013.35
2019-04-21T13:14:57.425Z,1013.28
2019-04-21T13:15:57.592Z,1013.29
2019-04-21T13:16:57.343Z,1013.25
2019-04-21T13:17:56.321Z,1013.26
2019-04-21T13:18:57.513Z,1013.26
2019-04-21T13:19:56.981Z,1013.26
2019-04-21T13:20:57.847Z,1013.29
2019-04-21T13:21:56.137Z,1013.30
2019-04-21T13:22:56.106Z,1013.18
2019-04-21T13:23:56.807Z,1013.19
2019-04-21T13:24:56.014Z,1013.23
2019-04-21T13:25:56.103Z,1013.26
2019-04-21T13:26:58.508Z,1013.18
2019-04-21T13:27:54.797Z,1013.19
2019-04-21T13:28:58.409Z,1013.19
2019-04-21T13:29:56.590Z,1013.11
2019-04-21T13:30:56.375Z,1013.10